Weather observations for the past three days for
Rochester Fulton County Airport
Imperial (Metric)
Date Time (edt) Wind (mph) Vis. (mi.) Weather Sky Cond. Temperature (ºF) Relative Humidity Wind Chill (°F) Heat Index (°F) Pressure Precipitation (in)
Air Dwpt 6 hour altimeter (in) sea level (mb) 1 hr 3 hr 6 hr
Max. Min.
01 12:15 SW 9 10.00 Fair CLR 84.2 75.2 74% 92 30.02 0.0
01 11:55 W 9 10.00 Fair CLR 84.2 75.2 74% 92 30.02 0.0
01 11:35 SW 9 10.00 Fair CLR 82.4 75.2 79% 89 30.02 0.0
01 11:15 SW 8 10.00 Fair CLR 80.6 73.4 79% 85 30.02 0.0
01 10:55 SW 7 10.00 Fair CLR 80.6 73.4 79% 85 30.02 0.0
01 10:35 SW 6 10.00 Fair CLR 77 73.4 89% 78 30.02 0.0
01 10:15 SW 5 10.00 Thunderstorm in Vicinity SCT110 77 73.4 89% 78 30.02 0.0
01 09:55 S 5 10.00 Thunderstorm in Vicinity BKN110 75.2 71.6 89% 75 30.02 0.0
01 09:35 S 6 10.00 Thunderstorm in Vicinity FEW110 75.2 71.6 89% 75 30.03 0.0
01 09:15 SW 6 10.00 Fair CLR 75.2 71.6 89% 75 30.03 0.0
01 08:55 SW 5 10.00 Fair CLR 75.2 71.6 89% 75 30.04 0.0
01 08:35 S 5 10.00 Thunderstorm in Vicinity FEW110 75.2 71.6 89% 75 30.03 0.0
01 08:15 Calm 10.00 Mostly Cloudy BKN110 75.2 71.6 89% 75 30.03 0.0
01 07:55 SW 5 10.00 Mostly Cloudy BKN110 73.4 71.6 94% 30.02 0.0
01 07:35 SW 6 10.00 Partly Cloudy SCT110 73.4 69.8 89% 30.01 0.0
01 07:15 SW 6 10.00 Mostly Cloudy BKN110 75.2 69.8 83% 75 30 0.0
01 06:55 SW 5 10.00 A Few Clouds FEW110 75.2 69.8 83% 75 30 0.0
01 06:35 SW 8 10.00 Mostly Cloudy BKN110 75.2 69.8 83% 75 30 0.0
01 06:15 SW 7 10.00 Overcast OVC110 75.2 69.8 83% 75 30 0.0
01 05:55 SW 9 10.00 Overcast OVC110 75.2 69.8 83% 75 30 0.0
01 05:35 SW 7 10.00 Partly Cloudy SCT110 75.2 69.8 83% 75 30 0.0
01 05:15 SW 7 10.00 Fair CLR 75.2 69.8 83% 75 30 0.0
01 04:55 SW 6 10.00 Fair CLR 75.2 69.8 83% 75 29.99 0.0
01 04:35 SW 6 10.00 Fair CLR 75.2 69.8 83% 75 29.99 0.0
01 04:15 SW 7 10.00 Fair CLR 75.2 69.8 83% 75 29.98 0.0
01 03:55 SW 6 10.00 Fair CLR 75.2 69.8 83% 75 29.98 0.0
01 03:35 S 7 10.00 Fair CLR 75.2 69.8 83% 75 29.99 0.0
01 03:15 S 7 10.00 Fair CLR 77 71.6 83% 78 29.98 0.0
01 02:55 SW 10 10.00 Fair CLR 77 69.8 79% 79 29.98 0.0
01 02:35 SW 8 10.00 Fair CLR 77 71.6 83% 78 29.98 0.0
01 02:15 SW 9 10.00 Fair CLR 77 71.6 83% 78 29.98 0.0
01 01:55 S 7 10.00 Fair CLR 77 71.6 83% 78 29.99 0.0
01 01:35 S 7 G 13 10.00 Fair CLR 77 71.6 83% 78 29.99 0.0
01 01:15 S 7 G 13 10.00 Fair CLR 78.8 71.6 79% 82 29.99 0.0
01 00:55 S 10 G 17 10.00 Fair CLR 78.8 69.8 74% 81 29.99 0.0
01 00:35 S 8 10.00 Fair CLR 78.8 71.6 79% 82 29.99 0.0
01 00:15 SW 7 10.00 Fair CLR 78.8 71.6 79% 82 29.99 0.0
31 23:55 SW 6 10.00 Fair CLR 78.8 71.6 79% 82 29.99 0.0
31 23:35 SW 7 10.00 Fair CLR 78.8 71.6 79% 82 29.98 0.0
31 23:15 SW 10 10.00 Fair CLR 80.6 71.6 74% 85 29.98 0.0
31 22:55 SW 9 G 16 10.00 Partly Cloudy FEW047 FEW065 SCT075 80.6 71.6 74% 85 29.98 0.0
31 22:15 S 12 8.00 Thunderstorm Light Rain FEW036 SCT055 BKN120 80.6 71.6 74% 85 29.98 0.0
31 21:55 SW 9 10.00 Thunderstorm in Vicinity SCT110 80.6 71.6 74% 85 30 0.0
31 21:35 SW 7 G 14 10.00 Thunderstorm in Vicinity SCT110 82.4 71.6 70% 87 30.01 0.0
31 21:15 S 8 10.00 A Few Clouds FEW120 82.4 73.4 74% 88 29.99 0.0
31 20:55 S 6 10.00 A Few Clouds FEW120 80.6 73.4 79% 85 29.99 0.0
31 20:35 Calm 10.00 Partly Cloudy SCT110 82.4 75.2 79% 89 30 0.0
31 20:15 S 5 10.00 Overcast OVC110 84.2 73.4 70% 91 30 0.0
31 19:35 S 6 10.00 Fair CLR 84.2 73.4 70% 91 30 0.0
31 19:15 S 5 10.00 Fair CLR 86 73.4 66% 93 29.99 0.0
31 18:55 S 7 10.00 Fair CLR 86 73.4 66% 93 29.99 0.0
31 18:35 S 8 G 15 10.00 A Few Clouds FEW120 86 73.4 66% 93 29.98 0.0
31 18:15 S 10 G 17 10.00 Fair CLR 87.8 73.4 62% 96 29.98 0.0
31 17:55 S 9 G 17 10.00 Fair CLR 87.8 73.4 62% 96 29.98 0.0
31 17:35 S 13 10.00 Fair CLR 87.8 73.4 62% 96 29.98 0.0
31 17:15 S 10 10.00 Fair CLR 87.8 73.4 62% 96 29.99 0.0
31 16:55 S 10 G 17 10.00 Fair CLR 87.8 73.4 62% 96 29.98 0.0
31 16:35 S 10 G 20 10.00 Fair CLR 87.8 73.4 62% 96 29.99 0.0
31 16:15 S 14 10.00 Fair CLR 87.8 75.2 66% 98 29.99 0.0
31 15:55 S 10 G 18 10.00 Fair CLR 87.8 73.4 62% 96 29.99 0.0
31 15:35 S 10 G 17 10.00 Fair CLR 86 73.4 66% 93 30 0.0
31 15:15 S 10 G 20 8.00 Fair CLR 86 73.4 66% 93 30.01 0.0
31 14:55 SW 12 10.00 Fair CLR 86 71.6 62% 92 30.02 0.0
31 14:35 S 9 10.00 Fair CLR 82.4 73.4 74% 88 30.03 0.0
31 14:15 S 8 G 16 10.00 A Few Clouds FEW120 82.4 71.6 70% 87 30.03 0.0
31 13:55 S 7 10.00 Mostly Cloudy BKN120 82.4 71.6 70% 87 30.04 0.0 0.01
31 13:35 S 3 9.00 Partly Cloudy FEW070 FEW085 SCT120 78.8 71.6 79% 82 30.06 0.0
31 13:15 S 7 9.00 Mostly Cloudy BKN120 78.8 71.6 79% 82 30.07 0.0
31 12:55 Vrbl 3 10.00 Mostly Cloudy BKN120 78.8 71.6 79% 82 30.07 0.0
31 12:35 SW 5 G 12 10.00 Fair CLR 77 69.8 79% 79 30.07 0.0
31 12:15 S 6 10.00 Fair CLR 77 71.6 83% 78 30.07 0.0
31 11:55 S 5 10.00 Fair CLR 77 71.6 83% 78 30.07 0.0
31 11:35 SW 6 10.00 Fair CLR 75.2 69.8 83% 75 30.07 0.0
31 11:15 Vrbl 5 8.00 Light Rain CLR 73.4 69.8 89% 30.07 0.0
31 10:55 SW 7 10.00 A Few Clouds FEW120 75.2 69.8 83% 75 30.07 0.0
31 10:35 S 7 10.00 Fair CLR 75.2 69.8 83% 75 30.06 0.0
31 10:15 SW 8 10.00 Fair CLR 73.4 68 83% 30.06 0.0
31 09:55 S 5 10.00 Fair CLR 73.4 68 83% 30.06 0.0
31 09:35 S 6 10.00 Fair CLR 73.4 68 83% 30.06 0.0
31 09:15 S 5 10.00 Fair CLR 73.4 68 83% 30.06 0.0
31 08:55 S 6 10.00 Fair CLR 73.4 68 83% 30.05 0.0
31 08:35 S 5 10.00 Fair CLR 73.4 68 83% 30.04 0.0
31 08:15 S 6 10.00 Fair CLR 73.4 68 83% 30.04 0.0
31 07:55 S 6 10.00 Fair CLR 73.4 68 83% 30.03 0.0
31 07:35 S 7 10.00 Fair CLR 71.6 68 88% 30.03 0.0
31 07:15 S 7 10.00 Fair CLR 71.6 68 88% 30.02 0.0
31 06:55 S 7 10.00 Fair CLR 71.6 68 88% 30.02 0.0
31 06:35 S 7 10.00 Fair CLR 71.6 68 88% 30.03 0.0
31 06:15 S 6 10.00 Fair CLR 71.6 68 88% 30.02 0.0
31 05:55 Calm 10.00 Fair CLR 71.6 69.8 94% 30.03 0.0
31 05:35 Calm 10.00 Fair CLR 71.6 69.8 94% 30.03 0.0
31 05:15 Calm 10.00 Fair CLR 73.4 69.8 89% 30.03 0.0
31 04:55 S 6 10.00 Fair CLR 73.4 69.8 89% 30.02 0.0
31 04:35 Vrbl 3 10.00 A Few Clouds FEW055 73.4 69.8 89% 30.02 0.0
31 04:15 S 3 10.00 Partly Cloudy FEW050 SCT060 71.6 69.8 94% 30.02 0.0
31 03:55 SE 7 10.00 Mostly Cloudy BKN060 71.6 71.6 100% 30.02 0.0
31 03:35 SE 5 10.00 Overcast OVC060 71.6 71.6 100% 30.02 0.0
31 03:15 Calm 9.00 Overcast OVC060 71.6 69.8 94% 30.03 0.0
31 02:55 SE 5 10.00 Overcast OVC060 73.4 71.6 94% 30.03 0.0
31 02:35 SE 5 10.00 Overcast BKN060 OVC110 73.4 71.6 94% 30.03 0.0
31 02:15 E 3 10.00 Overcast FEW044 SCT070 OVC100 71.6 71.6 100% 30.04 0.0
31 01:55 SE 6 10.00 Mostly Cloudy FEW055 SCT075 BKN090 73.4 71.6 94% 30.03 0.0
31 01:35 S 7 10.00 Partly Cloudy SCT060 SCT080 SCT095 73.4 73.4 100% 30.02 0.0
31 01:15 SE 6 10.00 Mostly Cloudy FEW060 FEW070 BKN120 71.6 71.6 100% 30.04 0.0
31 00:55 Calm 9.00 Overcast SCT075 BKN100 OVC120 71.6 71.6 100% 30.04 0.0
31 00:35 E 3 9.00 Overcast FEW060 SCT080 OVC100 71.6 71.6 100% 30.04 0.0
31 00:15 Calm 10.00 Mostly Cloudy FEW055 SCT060 BKN075 73.4 73.4 100% 30.04 0.0
30 23:55 Calm 9.00 Overcast BKN055 BKN070 OVC080 71.6 71.6 100% 30.05 0.0
30 23:35 Calm 10.00 Overcast SCT060 BKN070 OVC090 73.4 71.6 94% 30.05 0.0
30 23:15 Calm 10.00 Overcast SCT050 BKN070 OVC120 75.2 73.4 94% 74 30.04 0.0
30 22:55 Calm 10.00 Overcast OVC050 75.2 73.4 94% 74 30.03 0.0
30 22:35 S 3 10.00 Overcast OVC055 75.2 73.4 94% 74 30.03 0.0
30 22:15 S 5 10.00 Mostly Cloudy BKN050 75.2 71.6 89% 75 30.03 0.0
30 21:55 Calm 10.00 A Few Clouds FEW055 75.2 71.6 89% 75 30.03 0.0
30 21:35 Calm 10.00 Fair CLR 75.2 71.6 89% 75 30.04 0.0
30 21:15 Calm 10.00 Fair CLR 77 71.6 83% 78 30.03 0.0
30 20:55 Calm 10.00 Fair CLR 75.2 71.6 89% 75 30.03 0.0
30 20:35 Calm 10.00 Fair CLR 77 73.4 89% 78 30.02 0.0
30 20:15 S 3 10.00 Fair CLR 77 73.4 89% 78 30.02 0.0
30 19:55 SE 5 10.00 Partly Cloudy FEW065 FEW085 SCT110 77 73.4 89% 78 30.03 0.0
30 19:35 Calm 10.00 Fair CLR 77 73.4 89% 78 30.04 0.0
30 19:15 Calm 10.00 Fair CLR 78.8 71.6 79% 82 30.04 0.0
30 18:55 Calm 10.00 Fair CLR 78.8 71.6 79% 82 30.04 0.0
30 18:35 Calm 10.00 Fair CLR 78.8 69.8 74% 81 30.05 0.0
30 18:15 Calm 10.00 Fair CLR 80.6 69.8 70% 84 30.06 0.0
30 17:55 W 6 10.00 Fair CLR 80.6 69.8 70% 84 30.06 0.0
30 17:35 W 6 10.00 Fair CLR 80.6 69.8 70% 84 30.06 0.0
30 17:15 W 6 10.00 Fair CLR 78.8 69.8 74% 81 30.07 0.0
30 16:55 SW 9 10.00 Fair CLR 80.6 69.8 70% 84 30.05 0.0
30 16:35 SW 8 10.00 Fair CLR 80.6 69.8 70% 84 30.04 0.0
30 16:15 Vrbl 7 G 13 10.00 Fair CLR 80.6 71.6 74% 85 30.04 0.0
30 15:55 S 9 10.00 Fair CLR 80.6 71.6 74% 85 30.04 0.0
30 15:35 S 14 G 24 10.00 Fair CLR 80.6 69.8 70% 84 30.04 0.0
30 15:10 SW 14 G 22 10.00 Fair CLR 78.8 69.8 74% 81 30.05 0.0
30 14:55 S 12 10.00 A Few Clouds FEW110 78.8 69.8 74% 81 30.06 0.0
30 14:35 S 8 G 16 10.00 Partly Cloudy SCT120 77 69.8 79% 79 30.06 0.0
30 14:15 S 10 G 17 10.00 Partly Cloudy SCT120 77 69.8 79% 79 30.05 0.0
30 13:55 S 12 10.00 Fair CLR 75.2 68 78% 76 30.04 0.0
30 13:35 S 10 10.00 A Few Clouds FEW120 73.4 68 83% 30.05 0.0
30 13:15 S 9 10.00 A Few Clouds FEW120 73.4 68 83% 30.07 0.0
30 12:55 S 10 G 17 9.00 Light Rain CLR 71.6 68 88% 30.06 0.0
30 12:35 S 10 G 16 10.00 Fair CLR 71.6 68 88% 30.09 0.0
30 12:15 SE 8 9.00 Light Rain CLR 69.8 68 94% 30.1 0.0
30 11:55 SE 8 10.00 Light Rain CLR 69.8 68 94% 30.12 0.0
30 11:35 Calm 10.00 Light Rain CLR 69.8 68 94% 30.13 0.0
30 11:15 Calm 9.00 Light Rain FEW055 FEW110 69.8 68 94% 30.13 0.0
30 10:55 Calm 9.00 Light Rain FEW110 69.8 68 94% 30.13 0.0
30 10:35 Calm 9.00 Light Rain FEW110 69.8 66.2 88% 30.13 0.0
30 10:15 SW 5 10.00 A Few Clouds FEW110 69.8 66.2 88% 30.12 0.0
30 09:55 SW 3 10.00 A Few Clouds FEW110 69.8 66.2 88% 30.11 0.0
30 09:35 SW 5 10.00 Partly Cloudy SCT110 69.8 64.4 83% 30.1 0.0
30 09:15 SW 6 10.00 A Few Clouds FEW120 69.8 64.4 83% 30.09 0.0
30 08:55 Vrbl 5 10.00 Mostly Cloudy BKN120 69.8 64.4 83% 30.08 0.0
30 08:35 S 8 10.00 Mostly Cloudy BKN120 69.8 64.4 83% 30.07 0.0
30 08:15 S 5 10.00 Partly Cloudy SCT120 69.8 64.4 83% 30.07 0.0
30 07:55 S 7 10.00 Fair CLR 69.8 64.4 83% 30.06 0.0
30 07:35 S 6 10.00 A Few Clouds FEW120 68 64.4 88% 30.05 0.0
30 07:15 S 8 10.00 Fair CLR 69.8 64.4 83% 30.05 0.0
30 06:55 S 5 10.00 Mostly Cloudy FEW075 BKN110 69.8 64.4 83% 30.06 0.0
30 06:35 S 5 10.00 Overcast FEW036 BKN075 OVC110 69.8 64.4 83% 30.06 0.0
30 06:15 SE 6 10.00 Light Rain FEW017 BKN060 OVC100 69.8 64.4 83% 30.07 0.0
30 05:55 SE 6 10.00 Mostly Cloudy FEW048 SCT060 BKN075 68 64.4 88% 30.07 0.0
30 05:35 SE 5 10.00 Mostly Cloudy FEW033 SCT075 BKN085 68 62.6 83% 30.08 0.0
30 05:15 Calm 4.00 Overcast with Haze OVC110 69.8 62.6 78% 30.09 0.0
30 04:55 Vrbl 3 5.00 Overcast with Haze OVC110 69.8 62.6 78% 30.08 0.0
30 04:35 S 7 8.00 Overcast OVC110 69.8 62.6 78% 30.06 0.0
30 04:15 S 8 8.00 Mostly Cloudy FEW065 FEW075 BKN110 71.6 62.6 73% 30.06 0.0
30 03:55 S 7 7.00 Overcast OVC110 71.6 60.8 69% 30.06 0.0
30 03:35 S 8 8.00 Overcast OVC110 69.8 62.6 78% 30.05 0.0
30 03:15 S 7 6.00 Overcast with Haze OVC110 69.8 62.6 78% 30.06 0.0
30 02:55 S 7 7.00 Mostly Cloudy BKN110 69.8 62.6 78% 30.07 0.0
30 02:35 S 6 6.00 Mostly Cloudy with Haze BKN110 69.8 64.4 83% 30.07 0.0
30 02:15 S 5 5.00 Mostly Cloudy with Haze BKN110 69.8 64.4 83% 30.08 0.0
30 01:55 S 6 5.00 A Few Clouds with Haze FEW110 69.8 64.4 83% 30.08 0.0
30 01:35 SE 5 4.00 Partly Cloudy with Haze SCT110 69.8 64.4 83% 30.09 0.0
30 01:15 S 5 4.00 Mostly Cloudy with Haze BKN110 69.8 62.6 78% 30.09 0.0
30 00:55 S 5 5.00 Overcast with Haze OVC110 69.8 64.4 83% 30.1 0.0
30 00:35 SE 3 4.00 Mostly Cloudy with Haze BKN110 69.8 62.6 78% 30.1 0.0
30 00:15 S 5 4.00 Mostly Cloudy with Haze BKN110 69.8 62.6 78% 30.09 0.0
29 23:55 Calm 3.00 Mostly Cloudy with Haze BKN110 69.8 64.4 83% 30.09 0.0
29 23:35 Calm 3.00 Mostly Cloudy with Haze BKN110 71.6 64.4 78% 30.1 0.0
29 23:15 Calm 3.00 Mostly Cloudy with Haze BKN110 71.6 64.4 78% 30.09 0.0
29 22:55 SE 6 3.00 Mostly Cloudy with Haze BKN110 71.6 64.4 78% 30.09 0.0
29 22:35 SE 6 3.00 A Few Clouds with Haze FEW120 69.8 64.4 83% 30.1 0.0
29 22:15 SE 3 1.50 Fair with Haze CLR 69.8 64.4 83% 30.09 0.0
29 21:55 Calm 1.25 Fog/Mist SCT070 68 66.2 94% 30.1 0.0
29 21:35 Calm 1.50 Fair with Haze CLR 69.8 64.4 83% 30.09 0.0
29 21:15 Calm 3.00 Fair with Haze CLR 73.4 64.4 74% 30.09 0.0
29 20:55 SE 5 10.00 A Few Clouds FEW120 73.4 64.4 74% 30.08 0.0
29 20:35 SE 7 10.00 Fair CLR 73.4 64.4 74% 30.08 0.0
29 20:15 SE 6 10.00 Fair CLR 73.4 64.4 74% 30.08 0.0
29 19:55 SE 7 10.00 Fair CLR 75.2 64.4 69% 77 30.09 0.0
29 19:35 SE 5 10.00 Fair CLR 75.2 66.2 74% 77 30.09 0.0
29 19:15 SE 6 10.00 Fair CLR 77 64.4 65% 79 30.09 0.0
29 18:55 SE 6 10.00 Fair CLR 77 64.4 65% 79 30.1 0.0
29 18:35 SE 5 10.00 Fair CLR 78.8 64.4 61% 81 30.1 0.0
29 18:15 SE 3 10.00 Fair CLR 78.8 62.6 58% 80 30.11 0.0
29 17:55 SE 6 9.00 Fair CLR 78.8 62.6 58% 80 30.11 0.0
29 17:35 SE 6 10.00 Fair CLR 80.6 62.6 54% 82 30.11 0.0
29 17:15 Vrbl 5 10.00 Fair CLR 78.8 62.6 58% 80 30.11 0.0
29 16:55 S 7 10.00 Fair CLR 78.8 62.6 58% 80 30.12 0.0
29 16:35 S 5 10.00 Fair CLR 78.8 64.4 61% 81 30.12 0.0
29 16:15 S 5 10.00 Fair CLR 78.8 64.4 61% 81 30.13 0.0
29 15:55 S 6 10.00 Fair CLR 78.8 62.6 58% 80 30.14 0.0
29 15:35 S 7 10.00 Fair CLR 78.8 62.6 58% 80 30.14 0.0
29 15:15 Calm 10.00 Fair CLR 78.8 64.4 61% 81 30.15 0.0
29 14:55 Calm 10.00 Fair CLR 78.8 64.4 61% 81 30.15 0.0
29 14:35 Vrbl 6 10.00 Fair CLR 78.8 64.4 61% 81 30.16 0.0
29 14:15 Vrbl 6 10.00 Fair CLR 78.8 62.6 58% 80 30.17 0.0
29 13:55 SW 6 10.00 Fair CLR 78.8 62.6 58% 80 30.18 0.0
29 13:35 S 5 10.00 Fair CLR 77 64.4 65% 79 30.19 0.0
29 13:15 Vrbl 5 10.00 Fair CLR 77 64.4 65% 79 30.19 0.0
29 12:35 SW 6 10.00 Fair CLR 77 64.4 65% 79 30.2 0.0
Date Time (edt) Wind (mph) Vis. (mi.) Weather Sky Cond. Air Dwpt Max. Min. Relative Humidity Wind Chill (°F) Heat Index (°F) altimeter (in) sea level (mb) 1 hr 3 hr 6 hr
6 hour
Temperature (ºF) Pressure Precipitation (in)